• Join FlightAware (Why Join?)
  • Login
  • US Flag 
10:48PM EDT


 

Airport Tracker/Info


-or-


 

Live Flight TrackerFlight Track Log ✈ AWE4079 ✈ 28-Apr-2013 ✈ KMHT - KPHL

Flight Track Log - Related Links

Times and Time Zones

All times are in EDT time to prevent confusion due to time zone crossing. See the AWE4079 flight status page for this flight to view local times or setup timezone preferences in your user account.

Time Position Orientation Groundspeed Altitude Reporting Facility
EDT Latitude Longitude Course Direction KTS MPH feet Rate Location/Type
05:33AM 42.9500 -71.4167 270° West 156 180 1,200  Level KA90
05:34AM 42.9978 -71.3897 22° Northeast 225 259 3,600 2,460 Climbing Boston Center
05:35AM 42.9404 -71.8137 279° West  Level FlightAware Approximate
05:35AM 43.0442 -71.4317 327° Northwest 198 228 6,500  Level Boston Center
05:36AM 42.9500 -71.9408 270° West  Level FlightAware Approximate
05:36AM 43.0844 -71.5078 306° West 214 246 8,600  Level Boston Center
05:37AM 42.9501 -72.0688 270° West  Level FlightAware Approximate
05:37AM 43.1289 -71.5981 304° West 275 316 10,100  Level Boston Center
05:38AM 42.9500 -72.1969 270° West  Level FlightAware Approximate
05:38AM 43.1650 -71.6944 297° West 309 356 10,600  Level Boston Center
05:39AM 43.1408 -71.8342 257° West 314 361 13,300 2,640 Climbing Boston Center
05:40AM 43.1206 -71.9508 257° West 344 396 15,900 2,400 Climbing Boston Center
05:41AM 43.0939 -72.0875 255° West 350 403 18,200 1,980 Climbing Boston Center
05:42AM 43.0711 -72.2042 255° West 350 403 19,900 1,860 Climbing Boston Center
05:43AM 43.0547 -72.3322 260° West 355 409 22,000 1,860 Climbing Boston Center
05:44AM 43.0278 -72.4628 254° West 355 409 23,700 1,740 Climbing Boston Center
05:45AM 43.0025 -72.5933 255° West 360 414 25,500 1,140 Climbing Boston Center
05:46AM 42.9647 -72.7464 251° West 366 421 26,000 240 Climbing Boston Center
05:47AM 42.9372 -72.8825 255° West 366 421 26,000  Level Boston Center
05:48AM 42.9139 -73.0069 256° West 372 428 26,000  Level Boston Center
05:49AM 42.8836 -73.1569 255° West 377 434 26,000  Level Boston Center
05:50AM 42.8558 -73.2897 254° West 377 434 26,000  Level Boston Center
05:51AM 42.8297 -73.4225 255° West 377 434 26,000  Level Boston Center
05:52AM 42.8014 -73.5550 254° West 377 434 26,000  Level Boston Center
05:53AM 42.7750 -73.6875 255° West 372 428 26,000  Level Boston Center
05:54AM 42.7425 -73.8000 249° West 367 422 26,000  Level Boston Center
05:55AM 42.6889 -73.9172 238° Southwest 362 417 26,000  Level Boston Center
05:56AM 42.6372 -74.0319 239° Southwest 362 417 26,000  Level Boston Center
05:57AM 42.5769 -74.1628 238° Southwest 367 422 26,000  Level Boston Center
05:58AM 42.5211 -74.2739 236° Southwest 367 422 26,000  Level Boston Center
05:59AM 42.4650 -74.3850 236° Southwest 367 422 26,000  Level Boston Center
06:00AM 42.4067 -74.4983 235° Southwest 367 422 26,000 -420 Level Boston Center
06:02AM 42.2919 -74.6814 230° Southwest 379 436 24,800 -1,020 Descending New York Center
06:03AM 42.2197 -74.7864 227° Southwest 384 442 23,300 -1,560 Descending New York Center
06:04AM 42.1475 -74.8883 226° Southwest 384 442 21,800 -1,440 Descending New York Center
06:05AM 42.0800 -74.9761 224° Southwest 379 436 20,500 -1,440 Descending New York Center
06:06AM 41.9967 -75.0936 226° Southwest 379 436 19,000 -780 Descending New York Center
06:07AM 41.9253 -75.1669 217° Southwest 368 423 19,000 -300 Level New York Center
06:08AM 41.8308 -75.2442 211° Southwest 363 418 18,400 -960 Descending New York Center
06:09AM 41.7469 -75.3136 212° Southwest 363 418 17,100 -1,500 Descending New York Center
06:10AM 41.6611 -75.3800 210° Southwest 363 418 15,400 -1,740 Descending New York Center
06:11AM 41.5881 -75.4386 211° Southwest 352 405 13,700 -1,680 Descending New York Center
06:12AM 41.5106 -75.5025 212° Southwest 347 399 12,200 -900 Descending New York Center
06:13AM 41.4267 -75.5686 211° Southwest 333 383 12,000 -120 Descending New York Center
06:14AM 41.3664 -75.6169 211° Southwest 328 377 12,000  Level New York Center
06:15AM 41.2825 -75.6825 210° Southwest 328 377 12,000  Level New York Center
06:16AM 41.1886 -75.6814 179° South 314 361 12,000  Level New York Center
06:17AM 41.1086 -75.6536 165° South 314 361 12,000  Level New York Center
06:18AM 41.0142 -75.6219 166° South 319 367 12,000  Level New York Center
06:19AM 40.9381 -75.5972 166° South 319 367 12,000 -180 Level New York Center
06:20AM 40.8456 -75.5661 166° South 319 367 11,700 -660 Descending New York Center
06:21AM 40.7633 -75.5383 166° South 311 358 10,700 -840 Descending New York Center
06:22AM 40.6914 -75.5142 166° South 311 358 10,000 -360 Descending New York Center
06:23AM 40.6133 -75.4869 165° South 300 345 10,000  Level New York Center
06:24AM 40.5372 -75.4625 166° South 293 337 10,000 -60 Level New York Center
06:25AM 40.4528 -75.4350 166° South 288 331 9,900 -720 Descending New York Center
06:26AM 40.3869 -75.4142 166° South 288 331 8,600 -1,440 Descending New York Center
06:27AM 40.3150 -75.3903 166° South 276 318 7,000 -1,260 Descending New York Center
06:28AM 40.2447 -75.3692 167° South 252 290 6,100 -540 Descending New York Center
06:29AM 40.1969 -75.3144 139° Southeast 227 261 6,000 -60 Descending New York Center
06:30AM 40.1597 -75.2522 128° Southeast 227 261 6,000  Level New York Center
06:31AM 40.1264 -75.1986 129° Southeast 219 252 6,000  Level New York Center
06:32AM 40.0869 -75.1364 130° Southeast 207 238 6,000 -120 Level New York Center
06:33AM 40.0500 -75.1167 158° South 202 232 5,800 -840 Descending Philadelphia TRACON
06:34AM 39.9833 -75.1000 169° South 200 230 4,500 -1,320 Descending Philadelphia TRACON